createdAt,value
2019-04-27T00:00:07.346Z,9.86
2019-04-27T00:01:10.665Z,9.92
2019-04-27T00:02:07.334Z,9.94
2019-04-27T00:03:07.338Z,10.02
2019-04-27T00:04:07.310Z,10.12
2019-04-27T00:05:07.290Z,10.10
2019-04-27T00:06:08.588Z,10.22
2019-04-27T00:07:07.270Z,10.17
2019-04-27T00:08:07.254Z,10.25
2019-04-27T00:09:07.523Z,10.23
2019-04-27T00:10:07.314Z,10.16
2019-04-27T00:11:08.748Z,10.23
2019-04-27T00:12:07.226Z,10.15
2019-04-27T00:13:07.199Z,10.16
2019-04-27T00:14:10.269Z,10.12
2019-04-27T00:15:08.174Z,10.12
2019-04-27T00:16:09.916Z,10.07
2019-04-27T00:17:07.162Z,10.09
2019-04-27T00:18:09.466Z,10.02
2019-04-27T00:19:08.150Z,9.94
2019-04-27T00:20:07.119Z,9.91
2019-04-27T00:21:07.115Z,9.86
2019-04-27T00:22:07.100Z,9.84
2019-04-27T00:23:07.087Z,9.77
2019-04-27T00:24:07.087Z,9.80
2019-04-27T00:25:07.090Z,9.83
2019-04-27T00:26:07.062Z,9.80
2019-04-27T00:27:07.050Z,9.79
2019-04-27T00:28:07.065Z,9.69
2019-04-27T00:29:07.031Z,9.61
2019-04-27T00:30:07.011Z,9.65
2019-04-27T00:31:07.023Z,9.58
2019-04-27T00:32:06.991Z,9.58
2019-04-27T00:33:06.991Z,9.50
2019-04-27T00:34:06.967Z,9.48
2019-04-27T00:35:06.947Z,9.47
2019-04-27T00:36:06.939Z,9.54
2019-04-27T00:37:06.923Z,9.50
2019-04-27T00:38:06.919Z,9.48
2019-04-27T00:39:06.935Z,9.43
2019-04-27T00:40:06.900Z,9.44
2019-04-27T00:41:06.882Z,9.44
2019-04-27T00:42:06.873Z,9.48
2019-04-27T00:43:06.868Z,9.41
2019-04-27T00:44:06.867Z,9.48
2019-04-27T00:45:06.857Z,9.41
2019-04-27T00:46:06.828Z,9.39
2019-04-27T00:47:06.816Z,9.44
2019-04-27T00:48:06.807Z,9.40
2019-04-27T00:49:06.809Z,9.37
2019-04-27T00:50:06.838Z,9.37
2019-04-27T00:51:06.773Z,9.41
2019-04-27T00:52:06.767Z,9.37
2019-04-27T00:53:06.752Z,9.43
2019-04-27T00:54:06.764Z,9.41
2019-04-27T00:55:06.733Z,9.43
2019-04-27T00:56:06.749Z,9.40
2019-04-27T00:57:06.717Z,9.43
2019-04-27T00:58:06.702Z,9.44
2019-04-27T00:59:06.681Z,9.47
2019-04-27T01:00:06.675Z,9.46
2019-04-27T01:01:06.666Z,9.54
2019-04-27T01:02:06.689Z,9.51
2019-04-27T01:03:06.681Z,9.51
2019-04-27T01:04:06.625Z,9.47
2019-04-27T01:05:06.625Z,9.47
2019-04-27T01:06:06.607Z,9.54
2019-04-27T01:07:06.681Z,9.55
2019-04-27T01:08:06.581Z,9.46
2019-04-27T01:09:06.589Z,9.46
2019-04-27T01:10:06.557Z,9.47
2019-04-27T01:11:06.557Z,9.54
2019-04-27T01:12:06.538Z,9.47
2019-04-27T01:13:06.538Z,9.46
2019-04-27T01:14:06.510Z,9.44
2019-04-27T01:15:06.523Z,9.43
2019-04-27T01:16:06.490Z,9.40
2019-04-27T01:17:06.526Z,9.46
2019-04-27T01:18:13.225Z,9.46
2019-04-27T01:19:08.475Z,9.46
2019-04-27T01:20:06.454Z,9.48
2019-04-27T01:21:06.470Z,9.47
2019-04-27T01:22:06.427Z,9.50
2019-04-27T01:23:06.426Z,9.50
2019-04-27T01:24:06.399Z,9.48
2019-04-27T01:25:06.387Z,9.55
2019-04-27T01:26:06.379Z,9.55
2019-04-27T01:27:06.383Z,9.47
2019-04-27T01:28:06.398Z,9.48
2019-04-27T01:29:06.351Z,9.48
2019-04-27T01:30:06.355Z,9.46
2019-04-27T01:31:06.330Z,9.50
2019-04-27T01:32:06.313Z,9.40
2019-04-27T01:33:06.316Z,9.37
2019-04-27T01:34:06.293Z,9.46
2019-04-27T01:35:06.279Z,9.36
2019-04-27T01:36:06.276Z,9.32
2019-04-27T01:37:06.255Z,9.29
2019-04-27T01:38:06.283Z,9.31
2019-04-27T01:39:06.236Z,9.34
2019-04-27T01:40:06.259Z,9.36
2019-04-27T01:41:06.227Z,9.37
2019-04-27T01:42:06.207Z,9.41
2019-04-27T01:43:06.193Z,9.40
2019-04-27T01:44:06.200Z,9.40
2019-04-27T01:45:06.167Z,9.40
2019-04-27T01:46:06.164Z,9.41
2019-04-27T01:47:06.143Z,9.39
2019-04-27T01:48:06.131Z,9.41
2019-04-27T01:49:06.123Z,9.37
2019-04-27T01:50:06.127Z,9.39
2019-04-27T01:51:06.099Z,9.39
2019-04-27T01:52:06.085Z,9.50
2019-04-27T01:53:06.079Z,9.43
2019-04-27T01:54:06.060Z,9.47
2019-04-27T01:55:06.064Z,9.54
2019-04-27T01:56:06.068Z,9.48
2019-04-27T01:57:06.032Z,9.47
2019-04-27T01:58:06.036Z,9.55
2019-04-27T01:59:06.012Z,9.55
2019-04-27T02:00:05.996Z,9.55
2019-04-27T02:01:05.984Z,9.55
2019-04-27T02:02:05.972Z,9.50
2019-04-27T02:03:06.016Z,9.48
2019-04-27T02:04:05.985Z,9.54
2019-04-27T02:05:05.936Z,9.56
2019-04-27T02:06:05.964Z,9.59
2019-04-27T02:07:05.916Z,9.51
2019-04-27T02:08:05.941Z,9.59
2019-04-27T02:09:05.900Z,9.50
2019-04-27T02:10:05.896Z,9.50
2019-04-27T02:11:05.884Z,9.46
2019-04-27T02:12:05.860Z,9.47
2019-04-27T02:13:05.872Z,9.43
2019-04-27T02:14:05.848Z,9.31
2019-04-27T02:15:05.840Z,9.26
2019-04-27T02:16:05.820Z,9.23
2019-04-27T02:17:05.830Z,9.28
2019-04-27T02:18:05.796Z,9.18
2019-04-27T02:19:05.808Z,9.18
2019-04-27T02:20:05.808Z,9.25
2019-04-27T02:21:05.768Z,9.14
2019-04-27T02:22:05.760Z,9.04
2019-04-27T02:23:05.756Z,9.04
2019-04-27T02:24:05.733Z,9.04
2019-04-27T02:25:05.740Z,8.99
2019-04-27T02:26:05.711Z,9.02
2019-04-27T02:27:05.696Z,8.91
2019-04-27T02:28:05.719Z,8.92
2019-04-27T02:29:05.678Z,8.89
2019-04-27T02:30:05.657Z,8.89
2019-04-27T02:31:05.673Z,8.88
2019-04-27T02:32:05.681Z,8.89
2019-04-27T02:33:05.636Z,8.87
2019-04-27T02:34:05.625Z,8.87
2019-04-27T02:35:05.616Z,8.74
2019-04-27T02:36:05.590Z,8.81
2019-04-27T02:37:05.669Z,8.73
2019-04-27T02:38:05.597Z,8.58
2019-04-27T02:39:05.565Z,8.64
2019-04-27T02:40:05.550Z,8.58
2019-04-27T02:41:05.547Z,8.61
2019-04-27T02:42:05.545Z,8.53
2019-04-27T02:43:05.545Z,8.51
2019-04-27T02:44:05.518Z,8.53
2019-04-27T02:45:05.513Z,8.48
2019-04-27T02:46:05.502Z,8.46
2019-04-27T02:47:05.542Z,8.52
2019-04-27T02:48:05.459Z,8.45
2019-04-27T02:49:07.156Z,8.42
2019-04-27T02:50:05.439Z,8.48
2019-04-27T02:51:05.436Z,8.49
2019-04-27T02:52:05.465Z,8.44
2019-04-27T02:53:05.409Z,8.46
2019-04-27T02:54:05.388Z,8.37
2019-04-27T02:55:05.404Z,8.38
2019-04-27T02:56:05.373Z,8.38
2019-04-27T02:57:05.362Z,8.37
2019-04-27T02:58:05.340Z,8.44
2019-04-27T02:59:05.328Z,8.41
2019-04-27T03:00:05.334Z,8.38
2019-04-27T03:01:05.320Z,8.36
2019-04-27T03:02:05.329Z,8.36
2019-04-27T03:03:05.284Z,8.36
2019-04-27T03:04:05.274Z,8.38
2019-04-27T03:05:05.265Z,8.42
2019-04-27T03:06:05.255Z,8.31
2019-04-27T03:07:05.254Z,8.31
2019-04-27T03:08:05.241Z,8.31
2019-04-27T03:09:05.244Z,8.27
2019-04-27T03:10:05.204Z,8.30
2019-04-27T03:11:05.192Z,8.27
2019-04-27T03:12:05.182Z,8.31
2019-04-27T03:13:05.168Z,8.26
2019-04-27T03:14:05.190Z,8.24
2019-04-27T03:15:05.149Z,8.28
2019-04-27T03:16:05.141Z,8.24
2019-04-27T03:17:05.129Z,8.20
2019-04-27T03:18:05.113Z,8.16
2019-04-27T03:19:14.375Z,8.10
2019-04-27T03:20:06.108Z,8.16
2019-04-27T03:21:05.081Z,8.13
2019-04-27T03:22:05.071Z,8.06
2019-04-27T03:23:05.065Z,8.13
2019-04-27T03:24:05.049Z,8.15
2019-04-27T03:25:05.113Z,8.13
2019-04-27T03:26:05.039Z,8.15
2019-04-27T03:27:05.020Z,8.15
2019-04-27T03:28:05.009Z,8.12
2019-04-27T03:29:04.996Z,8.16
2019-04-27T03:30:05.003Z,8.10
2019-04-27T03:31:04.986Z,8.09
2019-04-27T03:32:04.982Z,8.10
2019-04-27T03:33:04.966Z,8.09
2019-04-27T03:34:05.884Z,8.08
2019-04-27T03:35:04.924Z,8.15
2019-04-27T03:36:04.918Z,8.12
2019-04-27T03:37:04.925Z,8.09
2019-04-27T03:38:04.897Z,8.15
2019-04-27T03:39:04.881Z,8.09
2019-04-27T03:40:04.895Z,8.03
2019-04-27T03:41:04.856Z,8.00
2019-04-27T03:42:04.849Z,7.98
2019-04-27T03:43:04.869Z,7.95
2019-04-27T03:44:04.864Z,7.97
2019-04-27T03:45:04.816Z,7.95
2019-04-27T03:46:04.803Z,7.95
2019-04-27T03:47:04.792Z,7.98
2019-04-27T03:48:04.775Z,7.94
2019-04-27T03:49:04.780Z,7.93
2019-04-27T03:50:04.761Z,8.03
2019-04-27T03:51:04.750Z,8.05
2019-04-27T03:52:04.733Z,8.01
2019-04-27T03:53:04.740Z,7.93
2019-04-27T03:54:04.747Z,7.93
2019-04-27T03:55:04.720Z,7.97
2019-04-27T03:56:04.692Z,7.97
2019-04-27T03:57:04.692Z,7.95
2019-04-27T03:58:04.665Z,8.05
2019-04-27T03:59:04.661Z,8.10
2019-04-27T04:00:04.659Z,7.95
2019-04-27T04:01:04.624Z,7.97
2019-04-27T04:02:04.620Z,7.97
2019-04-27T04:03:04.608Z,8.00
2019-04-27T04:04:04.599Z,8.03
2019-04-27T04:05:04.597Z,7.93
2019-04-27T04:06:04.597Z,7.98
2019-04-27T04:07:04.576Z,7.91
2019-04-27T04:08:04.557Z,7.87
2019-04-27T04:09:04.540Z,8.08
2019-04-27T04:10:04.528Z,8.06
2019-04-27T04:11:04.541Z,8.08
2019-04-27T04:12:04.532Z,8.06
2019-04-27T04:13:04.531Z,8.01
2019-04-27T04:14:04.486Z,8.03
2019-04-27T04:15:04.478Z,8.13
2019-04-27T04:16:07.688Z,8.06
2019-04-27T04:17:04.457Z,8.08
2019-04-27T04:18:04.459Z,8.13
2019-04-27T04:19:04.424Z,8.03
2019-04-27T04:20:04.417Z,8.15
2019-04-27T04:21:04.424Z,8.13
2019-04-27T04:22:04.407Z,8.09
2019-04-27T04:23:04.389Z,8.16
2019-04-27T04:24:04.386Z,8.16
2019-04-27T04:25:04.360Z,8.20
2019-04-27T04:26:04.348Z,8.16
2019-04-27T04:27:04.347Z,8.34
2019-04-27T04:28:04.358Z,8.33
2019-04-27T04:29:04.329Z,8.20
2019-04-27T04:30:04.300Z,8.37
2019-04-27T04:31:04.289Z,8.26
2019-04-27T04:32:04.276Z,8.33
2019-04-27T04:33:04.276Z,8.36
2019-04-27T04:34:04.267Z,8.37
2019-04-27T04:35:04.269Z,8.36
2019-04-27T04:36:04.236Z,8.46
2019-04-27T04:37:04.226Z,8.41
2019-04-27T04:38:04.227Z,8.41
2019-04-27T04:39:04.212Z,8.38
2019-04-27T04:40:04.192Z,8.37
2019-04-27T04:41:04.200Z,8.38
2019-04-27T04:42:04.172Z,8.41
2019-04-27T04:43:04.180Z,8.33
2019-04-27T04:44:04.141Z,8.37
2019-04-27T04:45:04.127Z,8.37
2019-04-27T04:46:05.047Z,8.44
2019-04-27T04:47:04.164Z,8.48
2019-04-27T04:48:04.096Z,8.46
2019-04-27T04:49:04.097Z,8.46
2019-04-27T04:50:11.299Z,8.48
2019-04-27T04:51:05.060Z,8.41
2019-04-27T04:52:04.052Z,8.42
2019-04-27T04:53:04.048Z,8.44
2019-04-27T04:54:04.044Z,8.37
2019-04-27T04:55:04.020Z,8.38
2019-04-27T04:56:04.015Z,8.41
2019-04-27T04:57:04.011Z,8.36
2019-04-27T04:58:03.996Z,8.38
2019-04-27T04:59:03.975Z,8.41
2019-04-27T05:00:03.976Z,8.41
2019-04-27T05:01:03.959Z,8.44
2019-04-27T05:02:03.939Z,8.41
2019-04-27T05:03:03.946Z,8.45
2019-04-27T05:04:03.919Z,8.46
2019-04-27T05:05:03.939Z,8.49
2019-04-27T05:06:03.900Z,8.53
2019-04-27T05:07:03.884Z,8.61
2019-04-27T05:08:03.883Z,8.64
2019-04-27T05:09:03.875Z,8.60
2019-04-27T05:10:03.847Z,8.76
2019-04-27T05:11:03.852Z,8.85
2019-04-27T05:12:03.828Z,8.88
2019-04-27T05:13:03.818Z,9.02
2019-04-27T05:14:03.807Z,8.99
2019-04-27T05:15:03.811Z,8.95
2019-04-27T05:16:03.803Z,8.91
2019-04-27T05:17:03.771Z,8.89
2019-04-27T05:18:03.761Z,8.99
2019-04-27T05:19:03.743Z,9.14
2019-04-27T05:20:03.733Z,9.10
2019-04-27T05:21:03.723Z,9.04
2019-04-27T05:22:03.751Z,9.08
2019-04-27T05:23:03.702Z,9.06
2019-04-27T05:24:03.691Z,9.13
2019-04-27T05:25:03.678Z,9.16
2019-04-27T05:26:03.675Z,9.18
2019-04-27T05:27:03.702Z,9.21
2019-04-27T05:28:03.651Z,9.23
2019-04-27T05:29:03.630Z,9.31
2019-04-27T05:30:03.671Z,9.31
2019-04-27T05:31:03.635Z,9.37
2019-04-27T05:32:03.611Z,9.40
2019-04-27T05:33:03.623Z,9.44
2019-04-27T05:34:03.586Z,9.47
2019-04-27T05:35:03.567Z,9.40
2019-04-27T05:36:03.569Z,9.59
2019-04-27T05:37:03.543Z,9.46
2019-04-27T05:38:07.487Z,9.65
2019-04-27T05:39:04.521Z,9.62
2019-04-27T05:40:03.505Z,9.79
2019-04-27T05:41:03.499Z,9.79
2019-04-27T05:42:03.492Z,9.83
2019-04-27T05:43:03.496Z,9.77
2019-04-27T05:44:07.534Z,9.83
2019-04-27T05:45:04.456Z,9.87
2019-04-27T05:46:03.440Z,9.92
2019-04-27T05:47:05.330Z,9.92
2019-04-27T05:48:04.431Z,9.92
2019-04-27T05:49:06.240Z,9.95
2019-04-27T05:50:03.415Z,9.94
2019-04-27T05:51:03.387Z,9.94
2019-04-27T05:52:03.374Z,10.04
2019-04-27T05:53:03.379Z,10.07
2019-04-27T05:54:03.348Z,10.15
2019-04-27T05:55:03.367Z,10.23
2019-04-27T05:56:03.328Z,10.22
2019-04-27T05:57:03.331Z,10.30
2019-04-27T05:58:03.323Z,10.23
2019-04-27T05:59:03.320Z,10.41
2019-04-27T06:00:03.284Z,10.34
2019-04-27T06:01:03.290Z,10.31
2019-04-27T06:02:03.255Z,10.34
2019-04-27T06:03:03.253Z,10.44
2019-04-27T06:04:03.240Z,10.48
2019-04-27T06:05:03.244Z,10.46
2019-04-27T06:06:03.245Z,10.57
2019-04-27T06:07:03.228Z,10.49
2019-04-27T06:08:03.189Z,10.56
2019-04-27T06:09:03.182Z,10.63
2019-04-27T06:10:03.168Z,10.60
2019-04-27T06:11:03.160Z,10.61
2019-04-27T06:12:03.152Z,10.63
2019-04-27T06:13:03.148Z,10.67
2019-04-27T06:14:03.123Z,10.68
2019-04-27T06:15:03.111Z,10.72
2019-04-27T06:16:03.099Z,10.67
2019-04-27T06:17:03.108Z,10.74
2019-04-27T06:18:03.112Z,10.78
2019-04-27T06:19:03.068Z,10.81
2019-04-27T06:20:03.051Z,10.84
2019-04-27T06:21:03.055Z,10.86
2019-04-27T06:22:03.039Z,10.89
2019-04-27T06:23:03.027Z,10.92
2019-04-27T06:24:03.063Z,10.79
2019-04-27T06:25:03.002Z,10.93
2019-04-27T06:26:02.998Z,10.84
2019-04-27T06:27:02.979Z,10.87
2019-04-27T06:28:02.971Z,10.96
2019-04-27T06:29:02.962Z,11.02
2019-04-27T06:30:04.871Z,11.02
2019-04-27T06:31:02.932Z,10.97
2019-04-27T06:32:02.923Z,11.00
2019-04-27T06:33:02.915Z,11.08
2019-04-27T06:34:02.919Z,11.27
2019-04-27T06:35:02.881Z,11.29
2019-04-27T06:36:02.889Z,11.37
2019-04-27T06:37:02.888Z,11.45
2019-04-27T06:38:02.849Z,11.47
2019-04-27T06:39:02.843Z,11.50
2019-04-27T06:40:02.849Z,11.51
2019-04-27T06:41:02.817Z,11.55
2019-04-27T06:42:15.635Z,11.66
2019-04-27T06:43:03.805Z,11.77
2019-04-27T06:44:02.822Z,11.77
2019-04-27T06:45:02.773Z,11.91
2019-04-27T06:46:02.765Z,12.03
2019-04-27T06:47:02.762Z,12.12
2019-04-27T06:48:02.746Z,12.18
2019-04-27T06:49:02.757Z,12.22
2019-04-27T06:50:02.731Z,12.40
2019-04-27T06:51:05.570Z,12.42
2019-04-27T06:52:02.689Z,12.53
2019-04-27T06:53:02.682Z,12.57
2019-04-27T06:54:02.688Z,12.50
2019-04-27T06:55:02.674Z,12.61
2019-04-27T06:56:02.649Z,12.50
2019-04-27T06:57:02.646Z,12.62
2019-04-27T06:58:02.626Z,12.61
2019-04-27T06:59:02.613Z,12.61
2019-04-27T07:00:02.637Z,12.62
2019-04-27T07:01:02.593Z,12.61
2019-04-27T07:02:02.625Z,12.55
2019-04-27T07:03:02.580Z,12.55
2019-04-27T07:04:02.569Z,12.70
2019-04-27T07:05:02.566Z,12.55
2019-04-27T07:06:02.538Z,12.54
2019-04-27T07:07:02.522Z,12.58
2019-04-27T07:08:02.529Z,12.54
2019-04-27T07:09:02.504Z,12.54
2019-04-27T07:10:02.499Z,12.68
2019-04-27T07:11:02.513Z,12.79
2019-04-27T07:12:02.462Z,12.80
2019-04-27T07:13:02.453Z,12.83
2019-04-27T07:14:02.478Z,12.82
2019-04-27T07:15:02.429Z,12.85
2019-04-27T07:16:02.434Z,12.83
2019-04-27T07:17:02.411Z,12.82
2019-04-27T07:18:02.401Z,12.93
2019-04-27T07:19:02.385Z,12.98
2019-04-27T07:20:02.469Z,12.91
2019-04-27T07:21:02.361Z,12.83
2019-04-27T07:22:02.346Z,12.83
2019-04-27T07:23:02.350Z,12.70
2019-04-27T07:24:02.505Z,12.78
2019-04-27T07:25:02.317Z,12.65
2019-04-27T07:26:02.332Z,12.55
2019-04-27T07:27:02.294Z,12.53
2019-04-27T07:28:02.285Z,12.64
2019-04-27T07:29:02.277Z,12.60
2019-04-27T07:30:02.266Z,12.53
2019-04-27T07:31:02.266Z,12.50
2019-04-27T07:32:02.249Z,12.62
2019-04-27T07:33:02.233Z,12.67
2019-04-27T07:34:02.209Z,12.67
2019-04-27T07:35:02.210Z,12.76
2019-04-27T07:36:02.189Z,12.83
2019-04-27T07:37:02.182Z,12.79
2019-04-27T07:38:02.177Z,12.79
2019-04-27T07:39:02.159Z,12.78
2019-04-27T07:40:02.142Z,12.72
2019-04-27T07:41:02.133Z,12.65
2019-04-27T07:42:02.121Z,12.72
2019-04-27T07:43:02.170Z,12.70
2019-04-27T07:44:02.100Z,12.62
2019-04-27T07:45:02.086Z,12.76
2019-04-27T07:46:02.082Z,12.68
2019-04-27T07:47:02.066Z,12.73
2019-04-27T07:48:02.059Z,12.79
2019-04-27T07:49:02.065Z,12.79
2019-04-27T07:50:02.055Z,12.76
2019-04-27T07:51:02.017Z,12.79
2019-04-27T07:52:02.006Z,12.83
2019-04-27T07:53:01.993Z,12.91
2019-04-27T07:54:01.985Z,12.95
2019-04-27T07:55:01.987Z,12.97
2019-04-27T07:56:01.989Z,13.03
2019-04-27T07:57:01.954Z,13.00
2019-04-27T07:58:04.887Z,13.05
2019-04-27T07:59:01.973Z,13.01
2019-04-27T08:00:01.993Z,13.00
2019-04-27T08:01:01.908Z,13.03
2019-04-27T08:02:01.889Z,13.03
2019-04-27T08:03:01.883Z,13.03
2019-04-27T08:04:01.917Z,13.09
2019-04-27T08:05:01.862Z,13.11
2019-04-27T08:06:01.877Z,13.16
2019-04-27T08:07:01.838Z,13.09
2019-04-27T08:08:01.898Z,13.04
2019-04-27T08:09:01.853Z,13.05
2019-04-27T08:10:01.990Z,13.00
2019-04-27T08:11:01.795Z,13.03
2019-04-27T08:12:01.801Z,12.95
2019-04-27T08:13:01.773Z,12.98
2019-04-27T08:14:01.753Z,13.05
2019-04-27T08:15:01.751Z,13.01
2019-04-27T08:16:01.733Z,13.01
2019-04-27T08:17:01.750Z,13.01
2019-04-27T08:18:01.713Z,13.05
2019-04-27T08:19:01.713Z,13.03
2019-04-27T08:20:01.708Z,12.97
2019-04-27T08:21:01.705Z,12.94
2019-04-27T08:22:01.677Z,12.95
2019-04-27T08:23:01.683Z,12.98
2019-04-27T08:24:01.649Z,12.90
2019-04-27T08:25:01.629Z,12.91
2019-04-27T08:26:01.621Z,12.94
2019-04-27T08:27:01.611Z,12.94
2019-04-27T08:28:01.605Z,12.94
2019-04-27T08:29:01.613Z,12.90
2019-04-27T08:30:01.602Z,12.90
2019-04-27T08:31:01.572Z,12.83
2019-04-27T08:32:01.554Z,12.78
2019-04-27T08:33:01.537Z,12.79
2019-04-27T08:34:01.535Z,12.94
2019-04-27T08:35:01.546Z,12.90
2019-04-27T08:36:01.525Z,12.78
2019-04-27T08:37:01.494Z,12.80
2019-04-27T08:38:01.497Z,12.73
2019-04-27T08:39:01.505Z,12.65
2019-04-27T08:40:01.489Z,12.47
2019-04-27T08:41:01.453Z,12.36
2019-04-27T08:42:01.445Z,12.29
2019-04-27T08:43:01.431Z,12.31
2019-04-27T08:44:01.427Z,12.22
2019-04-27T08:45:01.433Z,12.27
2019-04-27T08:46:01.442Z,12.15
2019-04-27T08:47:01.385Z,12.04
2019-04-27T08:48:01.393Z,12.17
2019-04-27T08:49:01.358Z,12.12
2019-04-27T08:50:01.401Z,12.10
2019-04-27T08:51:01.345Z,12.12
2019-04-27T08:52:01.973Z,12.09
2019-04-27T08:53:01.317Z,12.00
2019-04-27T08:54:01.313Z,11.87
2019-04-27T08:55:01.289Z,11.83
2019-04-27T08:56:01.285Z,11.80
2019-04-27T08:57:01.763Z,11.62
2019-04-27T08:58:01.281Z,11.68
2019-04-27T08:59:01.241Z,11.66
2019-04-27T09:00:01.245Z,11.51
2019-04-27T09:01:01.250Z,11.47
2019-04-27T09:02:01.209Z,11.37
2019-04-27T09:03:01.213Z,11.26
2019-04-27T09:04:01.189Z,11.22
2019-04-27T09:05:01.178Z,11.26
2019-04-27T09:06:01.177Z,11.19
2019-04-27T09:07:01.186Z,11.26
2019-04-27T09:08:01.249Z,11.26
2019-04-27T09:09:01.142Z,11.33
2019-04-27T09:10:01.134Z,11.27
2019-04-27T09:11:01.134Z,11.36
2019-04-27T09:12:01.134Z,11.40
2019-04-27T09:13:01.098Z,11.37
2019-04-27T09:14:01.089Z,11.48
2019-04-27T09:15:01.061Z,11.45
2019-04-27T09:16:01.067Z,11.45
2019-04-27T09:17:02.988Z,11.43
2019-04-27T09:18:01.037Z,11.37
2019-04-27T09:19:01.017Z,11.45
2019-04-27T09:20:01.031Z,11.36
2019-04-27T09:21:00.998Z,11.43
2019-04-27T09:22:12.322Z,11.32
2019-04-27T09:23:01.989Z,11.36
2019-04-27T09:24:00.962Z,11.37
2019-04-27T09:25:00.954Z,11.40
2019-04-27T09:26:01.031Z,11.51
2019-04-27T09:27:00.929Z,11.40
2019-04-27T09:28:00.909Z,11.41
2019-04-27T09:29:00.941Z,11.44
2019-04-27T09:30:00.909Z,11.55
2019-04-27T09:31:00.881Z,11.48
2019-04-27T09:32:01.824Z,11.41
2019-04-27T09:33:00.857Z,11.45
2019-04-27T09:34:00.906Z,11.36
2019-04-27T09:35:00.833Z,11.51
2019-04-27T09:36:00.835Z,11.52
2019-04-27T09:37:00.844Z,11.54
2019-04-27T09:38:00.805Z,11.50
2019-04-27T09:39:00.805Z,11.51
2019-04-27T09:40:00.785Z,11.50
2019-04-27T09:41:00.776Z,11.47
2019-04-27T09:42:00.753Z,11.43
2019-04-27T09:43:00.745Z,11.40
2019-04-27T09:44:02.509Z,11.35
2019-04-27T09:45:00.720Z,11.30
2019-04-27T09:46:00.729Z,11.25
2019-04-27T09:47:00.713Z,11.27
2019-04-27T09:48:00.697Z,11.26
2019-04-27T09:49:00.674Z,11.29
2019-04-27T09:50:00.669Z,11.30
2019-04-27T09:51:00.649Z,11.14
2019-04-27T09:52:00.671Z,11.30
2019-04-27T09:53:00.625Z,11.23
2019-04-27T09:54:00.637Z,11.25
2019-04-27T09:55:00.605Z,11.36
2019-04-27T09:56:00.601Z,11.41
2019-04-27T09:57:00.589Z,11.36
2019-04-27T09:58:00.589Z,11.48
2019-04-27T09:59:00.562Z,11.60
2019-04-27T10:00:00.615Z,11.78
2019-04-27T10:01:00.541Z,11.86
2019-04-27T10:02:00.525Z,11.87
2019-04-27T10:03:00.518Z,11.90
2019-04-27T10:04:00.521Z,11.86
2019-04-27T10:05:00.502Z,11.95
2019-04-27T10:06:00.477Z,12.04
2019-04-27T10:07:00.473Z,12.06
2019-04-27T10:08:00.457Z,12.12
2019-04-27T10:09:00.473Z,12.17
2019-04-27T10:10:00.446Z,12.28
2019-04-27T10:11:00.425Z,12.43
2019-04-27T10:12:00.409Z,12.45
2019-04-27T10:13:00.439Z,12.32
2019-04-27T10:14:00.389Z,12.32
2019-04-27T10:15:00.393Z,12.46
2019-04-27T10:16:00.386Z,12.50
2019-04-27T10:17:00.357Z,12.68
2019-04-27T10:18:00.345Z,12.70
2019-04-27T10:19:00.340Z,12.61
2019-04-27T10:20:00.325Z,12.55
2019-04-27T10:21:02.194Z,12.54
2019-04-27T10:22:00.297Z,12.55
2019-04-27T10:23:00.320Z,12.49
2019-04-27T10:24:00.277Z,12.50
2019-04-27T10:25:00.265Z,12.50
2019-04-27T10:26:00.253Z,12.47
2019-04-27T10:27:00.293Z,12.55
2019-04-27T10:28:00.250Z,12.75
2019-04-27T10:29:00.217Z,12.67
2019-04-27T10:30:00.210Z,12.78
2019-04-27T10:31:00.192Z,12.87
2019-04-27T10:32:00.185Z,12.98
2019-04-27T10:33:00.206Z,12.98
2019-04-27T10:34:00.165Z,12.98
2019-04-27T10:35:00.150Z,12.97
2019-04-27T10:36:00.157Z,13.00
2019-04-27T10:37:00.133Z,13.03
2019-04-27T10:38:00.127Z,13.09
2019-04-27T10:39:00.129Z,13.15
2019-04-27T10:40:00.129Z,13.11
2019-04-27T10:41:00.085Z,13.31
2019-04-27T10:42:00.073Z,13.28
2019-04-27T10:43:00.065Z,13.44
2019-04-27T10:44:00.058Z,13.49
2019-04-27T10:45:00.057Z,13.23
2019-04-27T10:46:00.025Z,13.25
2019-04-27T10:47:00.019Z,13.30
2019-04-27T10:48:00.037Z,13.39
2019-04-27T10:48:59.993Z,13.27
2019-04-27T10:49:59.992Z,13.37
2019-04-27T10:50:59.989Z,13.30
2019-04-27T10:51:59.957Z,13.09
2019-04-27T10:52:59.953Z,13.15
2019-04-27T10:53:59.953Z,13.16
2019-04-27T10:54:59.925Z,13.27
2019-04-27T10:55:59.969Z,13.31
2019-04-27T10:56:59.917Z,13.37
2019-04-27T10:57:59.906Z,13.16
2019-04-27T10:58:59.885Z,13.03
2019-04-27T10:59:59.919Z,13.01
2019-04-27T11:00:59.857Z,12.97
2019-04-27T11:01:59.881Z,12.95
2019-04-27T11:02:59.849Z,13.00
2019-04-27T11:03:59.833Z,13.08
2019-04-27T11:04:59.843Z,13.13
2019-04-27T11:05:59.798Z,13.09
2019-04-27T11:06:59.790Z,13.33
2019-04-27T11:07:59.785Z,13.13
2019-04-27T11:08:59.789Z,13.16
2019-04-27T11:09:59.761Z,13.16
2019-04-27T11:10:59.741Z,13.15
2019-04-27T11:11:59.806Z,13.00
2019-04-27T11:12:59.748Z,12.90
2019-04-27T11:14:01.029Z,12.86
2019-04-27T11:14:59.727Z,12.78
2019-04-27T11:15:59.685Z,12.85
2019-04-27T11:16:59.709Z,12.85
2019-04-27T11:17:59.670Z,12.83
2019-04-27T11:18:59.657Z,12.83
2019-04-27T11:20:02.614Z,12.85
2019-04-27T11:20:59.701Z,12.93
2019-04-27T11:21:59.624Z,12.91
2019-04-27T11:23:07.043Z,12.97
2019-04-27T11:24:00.621Z,12.90
2019-04-27T11:24:59.591Z,12.82
2019-04-27T11:26:02.386Z,12.79
2019-04-27T11:26:59.573Z,12.82
2019-04-27T11:27:59.557Z,12.86
2019-04-27T11:28:59.537Z,12.85
2019-04-27T11:29:59.530Z,12.83
2019-04-27T11:30:59.556Z,12.85
2019-04-27T11:31:59.513Z,12.83
2019-04-27T11:32:59.513Z,12.76
2019-04-27T11:33:59.505Z,12.62
2019-04-27T11:34:59.473Z,12.55
2019-04-27T11:35:59.461Z,12.50
2019-04-27T11:36:59.453Z,12.50
2019-04-27T11:37:59.449Z,12.53
2019-04-27T11:38:59.437Z,12.54
2019-04-27T11:39:59.437Z,12.55
2019-04-27T11:40:59.410Z,12.61
2019-04-27T11:41:59.397Z,12.46
2019-04-27T11:42:59.377Z,12.55
2019-04-27T11:43:59.373Z,12.55
2019-04-27T11:44:59.365Z,12.53
2019-04-27T11:45:59.370Z,12.58
2019-04-27T11:46:59.333Z,12.70
2019-04-27T11:47:59.385Z,12.82
2019-04-27T11:48:59.317Z,12.76
2019-04-27T11:49:59.309Z,12.78
2019-04-27T11:50:59.321Z,12.78
2019-04-27T11:51:59.281Z,12.64
2019-04-27T11:52:59.264Z,12.73
2019-04-27T11:53:59.256Z,12.67
2019-04-27T11:54:59.248Z,12.67
2019-04-27T11:55:59.237Z,12.57
2019-04-27T11:56:59.293Z,12.54
2019-04-27T11:57:59.214Z,12.55
2019-04-27T11:58:59.209Z,12.50
2019-04-27T11:59:59.189Z,12.57
2019-04-27T12:00:59.208Z,12.54
2019-04-27T12:01:59.177Z,12.49
2019-04-27T12:02:59.200Z,12.32
2019-04-27T12:03:59.145Z,12.24
2019-04-27T12:04:59.145Z,11.78
2019-04-27T12:06:00.329Z,11.32
2019-04-27T12:06:59.108Z,10.75
2019-04-27T12:07:59.112Z,10.34
2019-04-27T12:08:59.108Z,10.04
2019-04-27T12:09:59.093Z,9.68
2019-04-27T12:10:59.064Z,9.54
2019-04-27T12:12:12.653Z,9.23
2019-04-27T12:13:00.041Z,8.89
2019-04-27T12:13:59.025Z,8.71
2019-04-27T12:14:59.053Z,8.71
2019-04-27T12:15:59.015Z,8.71
2019-04-27T12:16:58.997Z,8.67
2019-04-27T12:17:58.990Z,8.60
2019-04-27T12:18:59.000Z,8.52
2019-04-27T12:19:58.956Z,8.63
2019-04-27T12:20:58.949Z,8.58
2019-04-27T12:21:58.949Z,8.63
2019-04-27T12:22:58.926Z,8.73
2019-04-27T12:23:58.965Z,8.69
2019-04-27T12:24:58.920Z,8.66
2019-04-27T12:25:58.900Z,8.63
2019-04-27T12:26:58.893Z,8.70
2019-04-27T12:27:58.874Z,8.88
2019-04-27T12:28:58.861Z,8.88
2019-04-27T12:29:58.852Z,8.95
2019-04-27T12:30:58.849Z,9.10
2019-04-27T12:31:58.821Z,9.08
2019-04-27T12:32:58.808Z,9.18
2019-04-27T12:33:58.926Z,9.23
2019-04-27T12:34:58.808Z,9.22
2019-04-27T12:35:58.810Z,9.25
2019-04-27T12:36:58.785Z,9.29
2019-04-27T12:37:58.764Z,9.23
2019-04-27T12:38:58.761Z,9.13
2019-04-27T12:39:58.732Z,9.19
2019-04-27T12:40:58.804Z,9.11
2019-04-27T12:41:58.713Z,9.11
2019-04-27T12:42:58.714Z,8.88
2019-04-27T12:43:58.701Z,8.84
2019-04-27T12:44:58.685Z,8.76
2019-04-27T12:45:58.668Z,8.82
2019-04-27T12:47:02.666Z,8.71
2019-04-27T12:47:58.644Z,8.58
2019-04-27T12:48:58.737Z,8.63
2019-04-27T12:49:58.676Z,8.63
2019-04-27T12:50:58.608Z,8.53
2019-04-27T12:51:58.600Z,8.51
2019-04-27T12:52:58.593Z,8.60
2019-04-27T12:53:58.585Z,8.61
2019-04-27T12:54:58.592Z,8.66
2019-04-27T12:55:58.564Z,8.67
2019-04-27T12:56:58.544Z,8.70
2019-04-27T12:57:58.537Z,8.67
2019-04-27T12:58:58.520Z,8.73
2019-04-27T12:59:58.515Z,8.78
2019-04-27T13:00:58.504Z,8.76
2019-04-27T13:01:58.501Z,8.71
2019-04-27T13:02:58.500Z,8.84
2019-04-27T13:03:59.287Z,8.94
2019-04-27T13:04:58.452Z,8.88